createdAt,value
2023-01-04T00:00:17.283Z,100.00
2023-01-04T00:03:05.659Z,100.00
2023-01-04T00:05:54.934Z,100.00
2023-01-04T00:08:43.322Z,100.00
2023-01-04T00:11:31.238Z,100.00
2023-01-04T00:14:22.159Z,100.00
2023-01-04T00:17:11.401Z,100.00
2023-01-04T00:19:59.267Z,100.00
2023-01-04T00:22:48.434Z,100.00
2023-01-04T00:25:38.933Z,100.00
2023-01-04T00:28:26.553Z,100.00
2023-01-04T00:31:16.338Z,100.00
2023-01-04T00:34:07.022Z,100.00
2023-01-04T00:36:56.854Z,100.00
2023-01-04T00:39:44.899Z,100.00
2023-01-04T00:42:32.869Z,100.00
2023-01-04T00:45:20.658Z,100.00
2023-01-04T00:48:08.658Z,100.00
2023-01-04T00:50:58.030Z,100.00
2023-01-04T00:53:45.635Z,100.00
2023-01-04T00:56:34.739Z,100.00
2023-01-04T00:59:23.536Z,100.00
2023-01-04T01:02:12.066Z,100.00
2023-01-04T01:05:01.339Z,100.00
2023-01-04T01:07:51.432Z,100.00
2023-01-04T01:10:39.397Z,100.00
2023-01-04T01:13:27.298Z,100.00
2023-01-04T01:16:27.325Z,100.00
2023-01-04T01:19:26.426Z,100.00
2023-01-04T01:22:16.424Z,100.00
2023-01-04T01:25:05.960Z,100.00
2023-01-04T01:27:53.651Z,100.00
2023-01-04T01:30:42.629Z,100.00
2023-01-04T01:33:30.393Z,100.00
2023-01-04T01:36:21.018Z,100.00
2023-01-04T01:39:08.965Z,100.00
2023-01-04T01:41:59.486Z,100.00
2023-01-04T01:45:01.540Z,100.00
2023-01-04T01:47:52.555Z,100.00
2023-01-04T01:50:44.930Z,100.00
2023-01-04T01:53:38.652Z,100.00
2023-01-04T01:56:30.381Z,100.00
2023-01-04T01:59:20.662Z,100.00
2023-01-04T02:02:11.734Z,100.00
2023-01-04T02:05:05.772Z,100.00
2023-01-04T02:07:54.151Z,100.00
2023-01-04T02:10:41.884Z,100.00
2023-01-04T02:13:46.713Z,100.00
2023-01-04T02:17:01.139Z,100.00
2023-01-04T02:20:11.117Z,100.00
2023-01-04T02:23:28.754Z,100.00
2023-01-04T02:27:04.873Z,100.00
2023-01-04T02:30:38.440Z,100.00
2023-01-04T02:33:49.010Z,100.00
2023-01-04T02:36:44.398Z,100.00
2023-01-04T02:39:42.668Z,100.00
2023-01-04T02:42:58.280Z,100.00
2023-01-04T02:45:53.561Z,100.00
2023-01-04T02:49:02.895Z,100.00
2023-01-04T02:51:50.656Z,100.00
2023-01-04T02:54:39.186Z,100.00
2023-01-04T02:57:37.570Z,100.00
2023-01-04T03:01:02.538Z,100.00
2023-01-04T03:04:23.759Z,100.00
2023-01-04T03:07:18.522Z,100.00
2023-01-04T03:10:12.097Z,100.00
2023-01-04T03:13:06.204Z,100.00
2023-01-04T03:15:58.540Z,100.00
2023-01-04T03:18:49.235Z,100.00
2023-01-04T03:21:44.958Z,100.00
2023-01-04T03:24:52.230Z,100.00
2023-01-04T03:27:59.401Z,100.00
2023-01-04T03:31:14.233Z,100.00
2023-01-04T03:34:20.086Z,99.29
2023-01-04T03:37:17.393Z,89.23
2023-01-04T03:40:37.626Z,82.33
2023-01-04T03:43:52.688Z,74.99
2023-01-04T03:47:05.519Z,67.09
2023-01-04T03:50:02.128Z,60.95
2023-01-04T03:52:53.437Z,57.39
2023-01-04T03:55:43.673Z,53.58
2023-01-04T03:58:33.564Z,48.74
2023-01-04T04:01:25.284Z,44.21
2023-01-04T04:04:31.147Z,39.54
2023-01-04T04:07:36.697Z,35.00
2023-01-04T04:10:25.992Z,32.06
2023-01-04T04:13:14.144Z,29.94
2023-01-04T04:16:01.879Z,34.91
2023-01-04T04:18:50.056Z,32.29
2023-01-04T04:21:37.884Z,30.73
2023-01-04T04:24:27.734Z,30.39
2023-01-04T04:27:19.918Z,28.77
2023-01-04T04:30:08.947Z,28.00
2023-01-04T04:32:57.229Z,23.25
2023-01-04T04:35:45.399Z,23.58
2023-01-04T04:38:33.277Z,28.94
2023-01-04T04:41:38.551Z,27.83
2023-01-04T04:44:27.581Z,28.73
2023-01-04T04:47:15.650Z,31.65
2023-01-04T04:50:03.815Z,31.06
2023-01-04T04:52:56.301Z,30.51
2023-01-04T04:55:44.543Z,30.44
2023-01-04T04:58:35.286Z,30.49
2023-01-04T05:01:26.769Z,30.19
2023-01-04T05:04:16.943Z,30.17
2023-01-04T05:07:10.672Z,31.11
2023-01-04T05:10:00.106Z,31.63
2023-01-04T05:13:03.863Z,31.87
2023-01-04T05:15:55.272Z,32.42
2023-01-04T05:18:44.238Z,33.54
2023-01-04T05:21:32.133Z,34.33
2023-01-04T05:24:26.257Z,35.21
2023-01-04T05:27:14.413Z,36.28
2023-01-04T05:30:19.837Z,37.21
2023-01-04T05:33:08.074Z,38.42
2023-01-04T05:35:58.840Z,39.70
2023-01-04T05:38:48.753Z,40.95
2023-01-04T05:42:13.237Z,42.03
2023-01-04T05:45:07.361Z,43.62
2023-01-04T05:47:55.853Z,44.56
2023-01-04T05:50:45.795Z,45.34
2023-01-04T05:53:34.960Z,46.62
2023-01-04T05:56:25.210Z,46.98
2023-01-04T05:59:13.576Z,48.15
2023-01-04T06:02:01.600Z,49.81
2023-01-04T06:04:59.138Z,51.13
2023-01-04T06:07:48.863Z,53.10
2023-01-04T06:10:40.409Z,56.31
2023-01-04T06:13:28.195Z,58.26
2023-01-04T06:16:18.169Z,61.41
2023-01-04T06:19:07.729Z,63.58
2023-01-04T06:21:56.200Z,65.81
2023-01-04T06:24:44.429Z,67.40
2023-01-04T06:27:35.204Z,68.35
2023-01-04T06:30:23.111Z,69.50
2023-01-04T06:33:13.256Z,71.57
2023-01-04T06:36:01.476Z,72.61
2023-01-04T06:38:49.556Z,73.75
2023-01-04T06:41:38.955Z,75.56
2023-01-04T06:44:28.126Z,77.90
2023-01-04T06:47:17.672Z,75.47
2023-01-04T06:50:07.198Z,75.98
2023-01-04T06:52:54.929Z,79.74
2023-01-04T06:55:45.757Z,82.57
2023-01-04T06:58:33.518Z,85.90
2023-01-04T07:01:22.598Z,87.97
2023-01-04T07:04:11.639Z,90.79
2023-01-04T07:06:59.565Z,95.53
2023-01-04T07:09:49.169Z,100.00
2023-01-04T07:12:37.379Z,100.00
2023-01-04T07:15:39.317Z,100.00
2023-01-04T07:18:29.291Z,100.00
2023-01-04T07:21:17.244Z,100.00
2023-01-04T07:24:05.495Z,100.00
2023-01-04T07:26:53.002Z,100.00
2023-01-04T07:29:43.809Z,100.00
2023-01-04T07:32:31.484Z,100.00
2023-01-04T07:35:21.268Z,100.00
2023-01-04T07:38:09.190Z,100.00
2023-01-04T07:41:00.381Z,100.00
2023-01-04T07:43:48.251Z,100.00
2023-01-04T07:46:37.534Z,100.00
2023-01-04T07:49:28.574Z,100.00
2023-01-04T07:52:17.656Z,100.00
2023-01-04T07:55:05.612Z,100.00
2023-01-04T07:57:55.246Z,100.00
2023-01-04T08:00:43.236Z,100.00
2023-01-04T08:03:31.163Z,100.00
2023-01-04T08:06:21.130Z,100.00
2023-01-04T08:09:13.235Z,100.00
2023-01-04T08:12:01.574Z,100.00
2023-01-04T08:14:49.681Z,100.00
2023-01-04T08:17:37.555Z,100.00
2023-01-04T08:20:25.337Z,100.00
2023-01-04T08:23:13.367Z,100.00
2023-01-04T08:26:06.438Z,100.00
2023-01-04T08:28:54.793Z,100.00
2023-01-04T08:31:42.861Z,100.00
2023-01-04T08:34:32.267Z,100.00
2023-01-04T08:37:19.960Z,100.00
2023-01-04T08:40:11.616Z,100.00
2023-01-04T08:43:00.841Z,100.00
2023-01-04T08:45:48.635Z,100.00
2023-01-04T08:48:36.762Z,100.00
2023-01-04T08:51:24.688Z,100.00
2023-01-04T08:54:13.247Z,100.00
2023-01-04T08:57:01.365Z,100.00
2023-01-04T08:59:50.789Z,100.00
2023-01-04T09:02:39.025Z,100.00
2023-01-04T09:05:33.164Z,100.00
2023-01-04T09:08:27.496Z,100.00
2023-01-04T09:11:17.719Z,100.00
2023-01-04T09:14:09.380Z,100.00
2023-01-04T09:16:58.790Z,100.00
2023-01-04T09:19:46.506Z,100.00
2023-01-04T09:22:34.523Z,100.00
2023-01-04T09:25:22.362Z,100.00
2023-01-04T09:28:12.773Z,100.00
2023-01-04T09:31:05.250Z,100.00
2023-01-04T09:37:02.973Z,100.00
2023-01-04T09:39:50.983Z,100.00
2023-01-04T09:42:47.472Z,100.00
2023-01-04T09:45:38.292Z,100.00
2023-01-04T09:48:30.282Z,100.00
2023-01-04T09:51:23.162Z,100.00
2023-01-04T09:54:17.087Z,100.00
2023-01-04T09:57:05.616Z,100.00
2023-01-04T09:59:58.417Z,100.00
2023-01-04T10:02:48.766Z,100.00
2023-01-04T10:05:36.479Z,100.00
2023-01-04T10:08:25.947Z,100.00
2023-01-04T10:11:27.605Z,100.00
2023-01-04T10:14:36.221Z,100.00
2023-01-04T10:18:43.441Z,100.00
2023-01-04T10:21:29.516Z,100.00
2023-01-04T10:24:39.974Z,100.00
2023-01-04T10:27:42.352Z,100.00
2023-01-04T10:30:41.117Z,100.00
2023-01-04T10:33:38.395Z,100.00
2023-01-04T10:36:31.516Z,100.00
2023-01-04T10:39:32.331Z,100.00
2023-01-04T10:42:36.732Z,100.00
2023-01-04T10:45:35.814Z,100.00
2023-01-04T10:48:32.150Z,100.00
2023-01-04T10:51:29.248Z,100.00
2023-01-04T10:54:25.463Z,100.00
2023-01-04T10:57:19.136Z,100.00
2023-01-04T11:00:12.834Z,100.00
2023-01-04T11:03:09.052Z,100.00
2023-01-04T11:06:03.660Z,100.00
2023-01-04T11:08:56.932Z,100.00
2023-01-04T11:11:46.645Z,100.00
2023-01-04T11:14:37.517Z,100.00
2023-01-04T11:17:27.294Z,100.00
2023-01-04T11:20:15.241Z,100.00
2023-01-04T11:23:06.704Z,100.00
2023-01-04T11:25:59.917Z,100.00
2023-01-04T11:28:52.690Z,100.00
2023-01-04T11:31:50.049Z,100.00
2023-01-04T11:34:49.042Z,100.00
2023-01-04T11:37:38.365Z,100.00
2023-01-04T11:40:28.119Z,100.00
2023-01-04T11:43:20.939Z,100.00
2023-01-04T11:46:24.305Z,100.00
2023-01-04T11:49:21.337Z,100.00
2023-01-04T11:52:31.085Z,100.00
2023-01-04T11:55:26.511Z,100.00
2023-01-04T11:58:16.464Z,100.00
2023-01-04T12:01:06.217Z,100.00
2023-01-04T12:03:54.181Z,100.00
2023-01-04T12:06:48.880Z,100.00
2023-01-04T12:09:38.074Z,100.00
2023-01-04T12:12:30.555Z,100.00
2023-01-04T12:15:26.456Z,100.00
2023-01-04T12:18:21.077Z,100.00
2023-01-04T12:21:16.503Z,100.00
2023-01-04T12:24:08.488Z,100.00
2023-01-04T12:26:58.132Z,100.00
2023-01-04T12:29:55.469Z,100.00
2023-01-04T12:32:47.696Z,100.00
2023-01-04T12:36:04.058Z,100.00
2023-01-04T12:39:39.014Z,100.00
2023-01-04T12:42:28.384Z,100.00
2023-01-04T12:45:19.628Z,100.00
2023-01-04T12:48:57.249Z,100.00
2023-01-04T12:51:58.278Z,100.00
2023-01-04T12:54:55.860Z,100.00
2023-01-04T12:58:07.847Z,100.00
2023-01-04T13:01:24.691Z,100.00
2023-01-04T13:04:40.866Z,100.00
2023-01-04T13:07:32.527Z,100.00
2023-01-04T13:10:29.153Z,100.00
2023-01-04T13:13:32.360Z,100.00
2023-01-04T13:16:28.708Z,100.00
2023-01-04T13:19:22.116Z,100.00
2023-01-04T13:22:20.943Z,100.00
2023-01-04T13:26:04.050Z,100.00
2023-01-04T13:29:07.766Z,100.00
2023-01-04T13:32:00.121Z,100.00
2023-01-04T13:34:56.533Z,100.00
2023-01-04T13:37:46.136Z,100.00
2023-01-04T13:40:37.468Z,100.00
2023-01-04T13:43:56.289Z,100.00
2023-01-04T13:46:45.605Z,100.00
2023-01-04T13:49:33.564Z,100.00
2023-01-04T13:52:50.514Z,100.00
2023-01-04T13:55:34.769Z,100.00
2023-01-04T13:58:48.071Z,100.00
2023-01-04T14:01:41.315Z,100.00
2023-01-04T14:04:35.945Z,100.00
2023-01-04T14:07:24.669Z,100.00
2023-01-04T14:10:19.900Z,100.00
2023-01-04T14:13:09.953Z,100.00
2023-01-04T14:16:13.076Z,100.00
2023-01-04T14:19:25.196Z,100.00
2023-01-04T14:22:41.417Z,100.00
2023-01-04T14:25:48.637Z,100.00
2023-01-04T14:28:49.678Z,100.00
2023-01-04T14:31:38.775Z,100.00
2023-01-04T14:34:26.406Z,100.00
2023-01-04T14:37:14.723Z,100.00
2023-01-04T14:40:14.444Z,100.00
2023-01-04T14:43:02.418Z,100.00
2023-01-04T14:45:50.469Z,100.00
2023-01-04T14:48:38.853Z,100.00
2023-01-04T14:51:33.884Z,100.00
2023-01-04T14:54:25.705Z,100.00
2023-01-04T14:57:33.044Z,100.00
2023-01-04T15:00:21.546Z,100.00
2023-01-04T15:03:09.621Z,100.00
2023-01-04T15:05:58.450Z,100.00
2023-01-04T15:08:46.637Z,100.00
2023-01-04T15:11:34.404Z,100.00
2023-01-04T15:14:24.316Z,100.00
2023-01-04T15:17:12.187Z,100.00
2023-01-04T15:20:00.197Z,100.00
2023-01-04T15:22:48.097Z,100.00
2023-01-04T15:25:36.563Z,100.00
2023-01-04T15:28:26.394Z,100.00
2023-01-04T15:31:17.192Z,100.00
2023-01-04T15:34:09.405Z,100.00
2023-01-04T15:36:57.287Z,100.00
2023-01-04T15:39:46.399Z,100.00
2023-01-04T15:42:51.678Z,100.00
2023-01-04T15:45:40.645Z,100.00
2023-01-04T15:48:29.683Z,100.00
2023-01-04T15:51:17.824Z,100.00
2023-01-04T15:54:05.784Z,100.00
2023-01-04T15:56:53.522Z,100.00
2023-01-04T15:59:41.395Z,100.00
2023-01-04T16:02:29.612Z,100.00
2023-01-04T16:05:20.828Z,100.00
2023-01-04T16:08:09.379Z,100.00
2023-01-04T16:10:57.348Z,100.00
2023-01-04T16:13:47.336Z,100.00
2023-01-04T16:16:35.245Z,100.00
2023-01-04T16:19:23.119Z,100.00
2023-01-04T16:22:13.815Z,100.00
2023-01-04T16:25:10.739Z,100.00
2023-01-04T16:27:59.493Z,100.00
2023-01-04T16:30:49.955Z,100.00
2023-01-04T16:33:38.209Z,100.00
2023-01-04T16:36:27.023Z,100.00
2023-01-04T16:39:17.049Z,100.00
2023-01-04T16:42:10.582Z,100.00
2023-01-04T16:44:58.999Z,100.00
2023-01-04T16:47:49.068Z,100.00
2023-01-04T16:50:40.977Z,100.00
2023-01-04T16:53:29.126Z,100.00
2023-01-04T16:56:21.162Z,100.00
2023-01-04T16:59:10.192Z,100.00
2023-01-04T17:01:58.468Z,100.00
2023-01-04T17:04:49.694Z,100.00
2023-01-04T17:07:37.704Z,100.00
2023-01-04T17:10:29.485Z,100.00
2023-01-04T17:13:18.976Z,100.00
2023-01-04T17:16:07.576Z,100.00
2023-01-04T17:18:56.783Z,100.00
2023-01-04T17:21:44.953Z,100.00
2023-01-04T17:24:32.937Z,100.00
2023-01-04T17:30:42.986Z,100.00
2023-01-04T17:33:30.825Z,100.00
2023-01-04T17:36:20.458Z,100.00
2023-01-04T17:39:08.602Z,100.00
2023-01-04T17:41:56.501Z,100.00
2023-01-04T17:44:46.077Z,100.00
2023-01-04T17:47:36.839Z,100.00
2023-01-04T17:50:25.931Z,100.00
2023-01-04T17:53:13.684Z,100.00
2023-01-04T17:56:03.921Z,100.00
2023-01-04T17:58:51.981Z,100.00
2023-01-04T18:01:39.896Z,100.00
2023-01-04T18:04:29.134Z,100.00
2023-01-04T18:07:17.774Z,100.00
2023-01-04T18:10:06.404Z,100.00
2023-01-04T18:12:54.237Z,100.00
2023-01-04T18:15:54.997Z,100.00
2023-01-04T18:18:50.173Z,100.00
2023-01-04T18:21:39.448Z,100.00
2023-01-04T18:24:36.781Z,100.00
2023-01-04T18:27:26.746Z,100.00
2023-01-04T18:30:15.481Z,100.00
2023-01-04T18:33:09.810Z,100.00
2023-01-04T18:36:02.846Z,100.00
2023-01-04T18:38:55.760Z,100.00
2023-01-04T18:41:48.316Z,100.00
2023-01-04T18:44:37.850Z,100.00
2023-01-04T18:47:30.583Z,100.00
2023-01-04T18:53:47.250Z,100.00
2023-01-04T18:56:38.811Z,100.00
2023-01-04T18:59:34.949Z,100.00
2023-01-04T19:02:22.812Z,100.00
2023-01-04T19:05:11.572Z,100.00
2023-01-04T19:07:59.487Z,100.00
2023-01-04T19:10:50.275Z,100.00
2023-01-04T19:13:47.497Z,100.00
2023-01-04T19:16:53.826Z,100.00
2023-01-04T19:19:43.070Z,100.00
2023-01-04T19:22:30.792Z,100.00
2023-01-04T19:25:23.180Z,100.00
2023-01-04T19:28:14.456Z,100.00
2023-01-04T19:31:09.288Z,100.00
2023-01-04T19:33:57.442Z,100.00
2023-01-04T19:36:45.142Z,100.00
2023-01-04T19:39:33.128Z,100.00
2023-01-04T19:42:21.250Z,100.00
2023-01-04T19:45:10.813Z,100.00
2023-01-04T19:48:00.451Z,100.00
2023-01-04T19:50:48.393Z,100.00
2023-01-04T19:53:36.818Z,100.00
2023-01-04T19:56:24.905Z,100.00
2023-01-04T19:59:12.739Z,100.00
2023-01-04T20:02:02.044Z,100.00
2023-01-04T20:08:08.331Z,100.00
2023-01-04T20:14:42.124Z,100.00
2023-01-04T20:17:31.438Z,100.00
2023-01-04T20:20:22.050Z,100.00
2023-01-04T20:23:15.130Z,100.00
2023-01-04T20:26:10.945Z,100.00
2023-01-04T20:29:22.452Z,100.00
2023-01-04T20:32:17.243Z,100.00
2023-01-04T20:35:08.723Z,100.00
2023-01-04T20:37:58.182Z,100.00
2023-01-04T20:40:46.207Z,100.00
2023-01-04T20:43:33.416Z,100.00
2023-01-04T20:46:29.647Z,100.00
2023-01-04T20:49:18.459Z,100.00
2023-01-04T20:52:08.452Z,100.00
2023-01-04T20:58:05.226Z,100.00
2023-01-04T21:00:54.855Z,100.00
2023-01-04T21:03:43.532Z,100.00
2023-01-04T21:06:37.181Z,100.00
2023-01-04T21:09:34.100Z,100.00
2023-01-04T21:15:50.332Z,100.00
2023-01-04T21:18:38.594Z,100.00
2023-01-04T21:21:26.383Z,100.00
2023-01-04T21:24:14.300Z,100.00
2023-01-04T21:27:02.513Z,100.00
2023-01-04T21:29:54.540Z,100.00
2023-01-04T21:32:42.424Z,100.00
2023-01-04T21:35:35.232Z,100.00
2023-01-04T21:38:28.759Z,100.00
2023-01-04T21:41:33.993Z,100.00
2023-01-04T21:44:25.352Z,100.00
2023-01-04T21:47:14.763Z,100.00
2023-01-04T21:50:02.853Z,100.00
2023-01-04T21:52:50.881Z,100.00
2023-01-04T21:55:38.684Z,100.00
2023-01-04T21:58:29.151Z,100.00
2023-01-04T22:01:18.916Z,100.00
2023-01-04T22:04:08.553Z,100.00
2023-01-04T22:06:56.606Z,100.00
2023-01-04T22:09:44.581Z,100.00
2023-01-04T22:12:32.516Z,100.00
2023-01-04T22:15:20.348Z,100.00
2023-01-04T22:18:08.457Z,100.00
2023-01-04T22:21:07.974Z,100.00
2023-01-04T22:23:56.363Z,100.00
2023-01-04T22:26:47.137Z,100.00
2023-01-04T22:29:41.000Z,100.00
2023-01-04T22:32:35.618Z,100.00
2023-01-04T22:35:23.910Z,100.00
2023-01-04T22:38:13.353Z,100.00
2023-01-04T22:41:03.735Z,100.00
2023-01-04T22:43:57.533Z,100.00
2023-01-04T22:46:46.542Z,100.00
2023-01-04T22:49:36.464Z,100.00
2023-01-04T22:52:24.191Z,100.00
2023-01-04T22:55:13.489Z,100.00
2023-01-04T22:58:03.630Z,100.00
2023-01-04T23:00:52.780Z,100.00
2023-01-04T23:03:43.268Z,100.00
2023-01-04T23:06:32.735Z,100.00
2023-01-04T23:09:20.904Z,100.00
2023-01-04T23:12:10.343Z,100.00
2023-01-04T23:15:00.045Z,100.00
2023-01-04T23:17:47.756Z,100.00
2023-01-04T23:20:36.482Z,100.00
2023-01-04T23:23:24.453Z,100.00
2023-01-04T23:26:15.727Z,100.00
2023-01-04T23:29:05.065Z,100.00
2023-01-04T23:31:52.938Z,100.00
2023-01-04T23:34:41.127Z,100.00
2023-01-04T23:37:28.862Z,100.00
2023-01-04T23:40:16.836Z,100.00
2023-01-04T23:43:04.776Z,100.00
2023-01-04T23:45:54.224Z,100.00
2023-01-04T23:48:42.320Z,100.00
2023-01-04T23:51:30.086Z,100.00
2023-01-04T23:54:20.673Z,100.00
2023-01-04T23:57:08.697Z,100.00
2023-01-04T23:59:56.856Z,100.00
